sensor_id;sensor_type;location;lat;lon;timestamp;P1;durP1;ratioP1;P2;durP2;ratioP2
47309;SDS011;33046;52.270;6.832;2022-10-23T00:02:04;9.77;;;3.55;;
47309;SDS011;33046;52.270;6.832;2022-10-23T00:04:12;9.15;;;4.15;;
47309;SDS011;33046;52.270;6.832;2022-10-23T00:06:20;10.45;;;4.05;;
47309;SDS011;33046;52.270;6.832;2022-10-23T00:08:27;6.95;;;3.78;;
47309;SDS011;33046;52.270;6.832;2022-10-23T00:10:33;5.30;;;3.47;;
47309;SDS011;33046;52.270;6.832;2022-10-23T00:12:40;6.10;;;4.22;;
47309;SDS011;33046;52.270;6.832;2022-10-23T00:14:47;6.30;;;3.30;;
47309;SDS011;33046;52.270;6.832;2022-10-23T00:16:55;7.43;;;3.88;;
47309;SDS011;33046;52.270;6.832;2022-10-23T00:19:03;7.88;;;3.63;;
47309;SDS011;33046;52.270;6.832;2022-10-23T00:21:10;8.40;;;3.92;;
47309;SDS011;33046;52.270;6.832;2022-10-23T00:23:19;6.78;;;3.60;;
47309;SDS011;33046;52.270;6.832;2022-10-23T00:25:26;7.65;;;4.03;;
47309;SDS011;33046;52.270;6.832;2022-10-23T00:27:33;17.17;;;4.25;;
47309;SDS011;33046;52.270;6.832;2022-10-23T00:29:40;9.57;;;3.35;;
47309;SDS011;33046;52.270;6.832;2022-10-23T00:31:47;6.88;;;3.88;;
47309;SDS011;33046;52.270;6.832;2022-10-23T00:33:57;7.18;;;4.05;;
47309;SDS011;33046;52.270;6.832;2022-10-23T00:36:05;6.43;;;4.18;;
47309;SDS011;33046;52.270;6.832;2022-10-23T00:38:13;6.63;;;3.20;;
47309;SDS011;33046;52.270;6.832;2022-10-23T00:40:20;6.57;;;4.13;;
47309;SDS011;33046;52.270;6.832;2022-10-23T00:42:27;9.02;;;4.10;;
47309;SDS011;33046;52.270;6.832;2022-10-23T00:47:18;7.93;;;3.67;;
47309;SDS011;33046;52.270;6.832;2022-10-23T00:49:26;9.95;;;4.50;;
47309;SDS011;33046;52.270;6.832;2022-10-23T00:51:35;9.00;;;3.80;;
47309;SDS011;33046;52.270;6.832;2022-10-23T00:53:45;5.30;;;3.17;;
47309;SDS011;33046;52.270;6.832;2022-10-23T00:55:58;5.30;;;3.17;;
47309;SDS011;33046;52.270;6.832;2022-10-23T00:58:05;6.35;;;2.85;;
47309;SDS011;33046;52.270;6.832;2022-10-23T01:00:17;5.97;;;2.70;;
47309;SDS011;33046;52.270;6.832;2022-10-23T01:02:26;4.75;;;2.95;;
47309;SDS011;33046;52.270;6.832;2022-10-23T01:04:34;5.43;;;3.03;;
47309;SDS011;33046;52.270;6.832;2022-10-23T01:06:44;4.18;;;2.70;;
47309;SDS011;33046;52.270;6.832;2022-10-23T01:09:02;4.15;;;2.22;;
47309;SDS011;33046;52.270;6.832;2022-10-23T01:11:19;3.47;;;1.77;;
47309;SDS011;33046;52.270;6.832;2022-10-23T01:13:33;2.20;;;1.60;;
47309;SDS011;33046;52.270;6.832;2022-10-23T01:15:46;1.95;;;1.48;;
47309;SDS011;33046;52.270;6.832;2022-10-23T01:18:03;4.65;;;1.58;;
47309;SDS011;33046;52.270;6.832;2022-10-23T01:20:22;2.60;;;1.88;;
47309;SDS011;33046;52.270;6.832;2022-10-23T01:25:22;4.65;;;2.60;;
47309;SDS011;33046;52.270;6.832;2022-10-23T01:27:41;5.32;;;2.78;;
47309;SDS011;33046;52.270;6.832;2022-10-23T01:29:58;8.35;;;3.00;;
47309;SDS011;33046;52.270;6.832;2022-10-23T01:32:16;7.13;;;2.95;;
47309;SDS011;33046;52.270;6.832;2022-10-23T01:34:31;4.68;;;2.88;;
47309;SDS011;33046;52.270;6.832;2022-10-23T01:36:45;6.95;;;2.90;;
47309;SDS011;33046;52.270;6.832;2022-10-23T01:38:55;5.18;;;2.67;;
47309;SDS011;33046;52.270;6.832;2022-10-23T01:41:06;3.70;;;3.00;;
47309;SDS011;33046;52.270;6.832;2022-10-23T01:43:19;5.60;;;2.22;;
47309;SDS011;33046;52.270;6.832;2022-10-23T01:45:33;5.95;;;3.55;;
47309;SDS011;33046;52.270;6.832;2022-10-23T01:47:46;4.53;;;2.20;;
47309;SDS011;33046;52.270;6.832;2022-10-23T01:49:55;5.38;;;2.88;;
47309;SDS011;33046;52.270;6.832;2022-10-23T01:52:05;5.00;;;3.00;;
47309;SDS011;33046;52.270;6.832;2022-10-23T01:54:15;4.38;;;2.42;;
47309;SDS011;33046;52.270;6.832;2022-10-23T01:56:25;3.30;;;2.00;;
47309;SDS011;33046;52.270;6.832;2022-10-23T01:58:37;6.82;;;2.33;;
47309;SDS011;33046;52.270;6.832;2022-10-23T02:00:48;5.95;;;2.05;;
47309;SDS011;33046;52.270;6.832;2022-10-23T02:02:57;4.95;;;2.55;;
47309;SDS011;33046;52.270;6.832;2022-10-23T02:05:12;5.13;;;3.05;;
47309;SDS011;33046;52.270;6.832;2022-10-23T02:07:20;3.30;;;2.38;;
47309;SDS011;33046;52.270;6.832;2022-10-23T02:09:28;4.38;;;2.42;;
47309;SDS011;33046;52.270;6.832;2022-10-23T02:11:37;6.55;;;2.63;;
47309;SDS011;33046;52.270;6.832;2022-10-23T02:13:51;4.35;;;2.42;;
47309;SDS011;33046;52.270;6.832;2022-10-23T02:16:02;8.18;;;2.70;;
47309;SDS011;33046;52.270;6.832;2022-10-23T02:18:21;2.92;;;2.47;;
47309;SDS011;33046;52.270;6.832;2022-10-23T02:20:37;3.80;;;2.13;;
47309;SDS011;33046;52.270;6.832;2022-10-23T02:22:54;5.93;;;2.22;;
47309;SDS011;33046;52.270;6.832;2022-10-23T02:27:17;5.13;;;3.15;;
47309;SDS011;33046;52.270;6.832;2022-10-23T02:29:33;8.55;;;3.13;;
47309;SDS011;33046;52.270;6.832;2022-10-23T02:31:44;5.57;;;3.45;;
47309;SDS011;33046;52.270;6.832;2022-10-23T02:33:51;6.78;;;3.22;;
47309;SDS011;33046;52.270;6.832;2022-10-23T02:35:58;6.38;;;3.25;;
47309;SDS011;33046;52.270;6.832;2022-10-23T02:40:41;5.93;;;3.78;;
47309;SDS011;33046;52.270;6.832;2022-10-23T02:42:51;7.03;;;3.55;;
47309;SDS011;33046;52.270;6.832;2022-10-23T02:45:05;13.57;;;5.18;;
47309;SDS011;33046;52.270;6.832;2022-10-23T02:47:20;5.40;;;3.72;;
47309;SDS011;33046;52.270;6.832;2022-10-23T02:49:38;7.07;;;4.63;;
47309;SDS011;33046;52.270;6.832;2022-10-23T02:51:58;7.60;;;3.85;;
47309;SDS011;33046;52.270;6.832;2022-10-23T02:54:12;6.75;;;4.40;;
47309;SDS011;33046;52.270;6.832;2022-10-23T02:56:25;7.38;;;3.92;;
47309;SDS011;33046;52.270;6.832;2022-10-23T02:58:42;6.53;;;4.55;;
47309;SDS011;33046;52.270;6.832;2022-10-23T03:00:55;9.48;;;4.22;;
47309;SDS011;33046;52.270;6.832;2022-10-23T03:03:08;4.72;;;3.63;;
47309;SDS011;33046;52.270;6.832;2022-10-23T03:05:20;8.32;;;4.20;;
47309;SDS011;33046;52.270;6.832;2022-10-23T03:07:29;10.80;;;5.03;;
47309;SDS011;33046;52.270;6.832;2022-10-23T03:09:43;6.40;;;4.82;;
47309;SDS011;33046;52.270;6.832;2022-10-23T03:11:49;5.68;;;4.30;;
47309;SDS011;33046;52.270;6.832;2022-10-23T03:13:56;7.13;;;4.10;;
47309;SDS011;33046;52.270;6.832;2022-10-23T03:16:05;8.15;;;4.55;;
47309;SDS011;33046;52.270;6.832;2022-10-23T03:18:13;6.88;;;4.57;;
47309;SDS011;33046;52.270;6.832;2022-10-23T03:20:24;7.90;;;5.10;;
47309;SDS011;33046;52.270;6.832;2022-10-23T03:22:31;5.35;;;4.38;;
47309;SDS011;33046;52.270;6.832;2022-10-23T03:24:39;8.95;;;4.50;;
47309;SDS011;33046;52.270;6.832;2022-10-23T03:26:45;6.28;;;4.63;;
47309;SDS011;33046;52.270;6.832;2022-10-23T03:28:52;6.20;;;3.97;;
47309;SDS011;33046;52.270;6.832;2022-10-23T03:31:01;6.43;;;4.45;;
47309;SDS011;33046;52.270;6.832;2022-10-23T03:33:10;7.65;;;3.97;;
47309;SDS011;33046;52.270;6.832;2022-10-23T03:35:16;7.78;;;4.55;;
47309;SDS011;33046;52.270;6.832;2022-10-23T03:37:24;7.88;;;4.07;;
47309;SDS011;33046;52.270;6.832;2022-10-23T03:39:30;5.22;;;3.90;;
47309;SDS011;33046;52.270;6.832;2022-10-23T03:41:37;8.15;;;4.90;;
47309;SDS011;33046;52.270;6.832;2022-10-23T03:43:44;9.60;;;5.07;;
47309;SDS011;33046;52.270;6.832;2022-10-23T03:45:50;5.10;;;4.03;;
47309;SDS011;33046;52.270;6.832;2022-10-23T03:47:57;8.20;;;4.40;;
47309;SDS011;33046;52.270;6.832;2022-10-23T03:50:06;10.20;;;4.95;;
47309;SDS011;33046;52.270;6.832;2022-10-23T03:52:13;6.15;;;4.30;;
47309;SDS011;33046;52.270;6.832;2022-10-23T03:54:20;11.07;;;4.78;;
47309;SDS011;33046;52.270;6.832;2022-10-23T03:56:27;8.13;;;4.53;;
47309;SDS011;33046;52.270;6.832;2022-10-23T03:58:34;6.38;;;3.83;;
47309;SDS011;33046;52.270;6.832;2022-10-23T04:00:41;9.35;;;4.38;;
47309;SDS011;33046;52.270;6.832;2022-10-23T04:02:53;5.57;;;4.22;;
47309;SDS011;33046;52.270;6.832;2022-10-23T04:04:59;7.07;;;4.22;;
47309;SDS011;33046;52.270;6.832;2022-10-23T04:07:09;8.65;;;3.95;;
47309;SDS011;33046;52.270;6.832;2022-10-23T04:09:16;4.43;;;4.03;;
47309;SDS011;33046;52.270;6.832;2022-10-23T04:11:23;6.43;;;4.03;;
47309;SDS011;33046;52.270;6.832;2022-10-23T04:13:29;8.20;;;4.63;;
47309;SDS011;33046;52.270;6.832;2022-10-23T04:15:36;8.60;;;4.13;;
47309;SDS011;33046;52.270;6.832;2022-10-23T04:17:43;6.95;;;3.88;;
47309;SDS011;33046;52.270;6.832;2022-10-23T04:19:51;7.50;;;4.30;;
47309;SDS011;33046;52.270;6.832;2022-10-23T04:21:57;6.38;;;4.65;;
47309;SDS011;33046;52.270;6.832;2022-10-23T04:24:06;9.25;;;4.93;;
47309;SDS011;33046;52.270;6.832;2022-10-23T04:26:13;10.50;;;5.00;;
47309;SDS011;33046;52.270;6.832;2022-10-23T04:28:19;8.88;;;5.18;;
47309;SDS011;33046;52.270;6.832;2022-10-23T04:30:26;8.48;;;5.10;;
47309;SDS011;33046;52.270;6.832;2022-10-23T04:32:33;5.78;;;5.15;;
47309;SDS011;33046;52.270;6.832;2022-10-23T04:34:42;7.57;;;4.60;;
47309;SDS011;33046;52.270;6.832;2022-10-23T04:36:49;8.45;;;5.20;;
47309;SDS011;33046;52.270;6.832;2022-10-23T04:38:56;6.78;;;4.22;;
47309;SDS011;33046;52.270;6.832;2022-10-23T04:41:05;5.63;;;4.93;;
47309;SDS011;33046;52.270;6.832;2022-10-23T04:43:12;8.32;;;5.25;;
47309;SDS011;33046;52.270;6.832;2022-10-23T04:45:19;12.15;;;5.55;;
47309;SDS011;33046;52.270;6.832;2022-10-23T04:47:26;8.70;;;5.75;;
47309;SDS011;33046;52.270;6.832;2022-10-23T04:49:36;7.40;;;4.97;;
47309;SDS011;33046;52.270;6.832;2022-10-23T04:51:53;7.47;;;4.95;;
47309;SDS011;33046;52.270;6.832;2022-10-23T04:54:23;5.70;;;4.80;;
47309;SDS011;33046;52.270;6.832;2022-10-23T04:57:09;10.20;;;5.88;;
47309;SDS011;33046;52.270;6.832;2022-10-23T04:59:34;6.68;;;4.78;;
47309;SDS011;33046;52.270;6.832;2022-10-23T05:01:41;6.03;;;4.65;;
47309;SDS011;33046;52.270;6.832;2022-10-23T05:03:48;7.35;;;5.13;;
47309;SDS011;33046;52.270;6.832;2022-10-23T05:05:55;7.25;;;4.68;;
47309;SDS011;33046;52.270;6.832;2022-10-23T05:08:28;6.35;;;4.97;;
47309;SDS011;33046;52.270;6.832;2022-10-23T05:11:07;5.95;;;4.82;;
47309;SDS011;33046;52.270;6.832;2022-10-23T05:13:21;11.27;;;4.85;;
47309;SDS011;33046;52.270;6.832;2022-10-23T05:15:28;7.25;;;4.93;;
47309;SDS011;33046;52.270;6.832;2022-10-23T05:17:36;5.28;;;4.78;;
47309;SDS011;33046;52.270;6.832;2022-10-23T05:19:46;6.03;;;5.47;;
47309;SDS011;33046;52.270;6.832;2022-10-23T05:21:56;7.50;;;4.93;;
47309;SDS011;33046;52.270;6.832;2022-10-23T05:24:05;6.45;;;4.75;;
47309;SDS011;33046;52.270;6.832;2022-10-23T05:26:13;7.90;;;5.53;;
47309;SDS011;33046;52.270;6.832;2022-10-23T05:28:24;7.97;;;5.07;;
47309;SDS011;33046;52.270;6.832;2022-10-23T05:30:31;6.68;;;5.18;;
47309;SDS011;33046;52.270;6.832;2022-10-23T05:32:39;6.55;;;5.13;;
47309;SDS011;33046;52.270;6.832;2022-10-23T05:34:46;6.45;;;4.95;;
47309;SDS011;33046;52.270;6.832;2022-10-23T05:36:53;7.05;;;5.07;;
47309;SDS011;33046;52.270;6.832;2022-10-23T05:39:02;5.57;;;4.97;;
47309;SDS011;33046;52.270;6.832;2022-10-23T05:41:10;6.93;;;5.00;;
47309;SDS011;33046;52.270;6.832;2022-10-23T05:43:17;12.20;;;6.38;;
47309;SDS011;33046;52.270;6.832;2022-10-23T05:45:45;7.40;;;5.65;;
47309;SDS011;33046;52.270;6.832;2022-10-23T05:48:24;7.38;;;4.93;;
47309;SDS011;33046;52.270;6.832;2022-10-23T05:51:05;17.92;;;6.45;;
47309;SDS011;33046;52.270;6.832;2022-10-23T05:53:22;6.05;;;5.40;;
47309;SDS011;33046;52.270;6.832;2022-10-23T05:55:36;11.05;;;5.78;;
47309;SDS011;33046;52.270;6.832;2022-10-23T05:58:15;11.52;;;6.00;;
47309;SDS011;33046;52.270;6.832;2022-10-23T06:00:52;7.80;;;6.55;;
47309;SDS011;33046;52.270;6.832;2022-10-23T06:03:19;8.40;;;5.53;;
47309;SDS011;33046;52.270;6.832;2022-10-23T06:05:26;5.93;;;5.32;;
47309;SDS011;33046;52.270;6.832;2022-10-23T06:07:55;8.32;;;6.22;;
47309;SDS011;33046;52.270;6.832;2022-10-23T06:10:04;9.10;;;5.53;;
47309;SDS011;33046;52.270;6.832;2022-10-23T06:12:14;8.05;;;6.22;;
47309;SDS011;33046;52.270;6.832;2022-10-23T06:14:24;8.30;;;5.65;;
47309;SDS011;33046;52.270;6.832;2022-10-23T06:16:34;18.17;;;6.82;;
47309;SDS011;33046;52.270;6.832;2022-10-23T06:18:41;11.13;;;6.95;;
47309;SDS011;33046;52.270;6.832;2022-10-23T06:20:52;5.82;;;5.03;;
47309;SDS011;33046;52.270;6.832;2022-10-23T06:23:03;8.48;;;6.45;;
47309;SDS011;33046;52.270;6.832;2022-10-23T06:25:29;8.27;;;5.40;;
47309;SDS011;33046;52.270;6.832;2022-10-23T06:27:36;9.82;;;5.75;;
47309;SDS011;33046;52.270;6.832;2022-10-23T06:29:44;10.63;;;5.90;;
47309;SDS011;33046;52.270;6.832;2022-10-23T06:32:01;12.32;;;6.55;;
47309;SDS011;33046;52.270;6.832;2022-10-23T06:34:08;10.00;;;6.05;;
47309;SDS011;33046;52.270;6.832;2022-10-23T06:36:17;10.55;;;5.88;;
47309;SDS011;33046;52.270;6.832;2022-10-23T06:38:24;9.13;;;5.68;;
47309;SDS011;33046;52.270;6.832;2022-10-23T06:40:34;8.77;;;6.30;;
47309;SDS011;33046;52.270;6.832;2022-10-23T06:42:43;8.73;;;5.88;;
47309;SDS011;33046;52.270;6.832;2022-10-23T06:45:06;10.25;;;5.43;;
47309;SDS011;33046;52.270;6.832;2022-10-23T06:47:33;7.18;;;5.72;;
47309;SDS011;33046;52.270;6.832;2022-10-23T06:50:06;12.10;;;5.95;;
47309;SDS011;33046;52.270;6.832;2022-10-23T06:52:14;7.70;;;5.47;;
47309;SDS011;33046;52.270;6.832;2022-10-23T06:54:33;9.73;;;6.47;;
47309;SDS011;33046;52.270;6.832;2022-10-23T06:56:51;9.57;;;5.70;;
47309;SDS011;33046;52.270;6.832;2022-10-23T06:59:08;11.68;;;5.93;;
47309;SDS011;33046;52.270;6.832;2022-10-23T07:01:16;8.40;;;6.00;;
47309;SDS011;33046;52.270;6.832;2022-10-23T07:03:25;10.68;;;5.85;;
47309;SDS011;33046;52.270;6.832;2022-10-23T07:05:32;6.57;;;5.05;;
47309;SDS011;33046;52.270;6.832;2022-10-23T07:07:38;9.73;;;6.00;;
47309;SDS011;33046;52.270;6.832;2022-10-23T07:09:45;7.82;;;5.93;;
47309;SDS011;33046;52.270;6.832;2022-10-23T07:12:00;7.60;;;5.40;;
47309;SDS011;33046;52.270;6.832;2022-10-23T07:14:19;8.20;;;5.68;;
47309;SDS011;33046;52.270;6.832;2022-10-23T07:16:26;6.30;;;5.70;;
47309;SDS011;33046;52.270;6.832;2022-10-23T07:18:36;11.20;;;5.10;;
47309;SDS011;33046;52.270;6.832;2022-10-23T07:21:01;5.63;;;5.03;;
47309;SDS011;33046;52.270;6.832;2022-10-23T07:23:10;7.38;;;5.35;;
47309;SDS011;33046;52.270;6.832;2022-10-23T07:25:18;5.50;;;5.00;;
47309;SDS011;33046;52.270;6.832;2022-10-23T07:27:25;12.30;;;6.28;;
47309;SDS011;33046;52.270;6.832;2022-10-23T07:29:35;11.77;;;5.20;;
47309;SDS011;33046;52.270;6.832;2022-10-23T07:31:42;11.75;;;6.18;;
47309;SDS011;33046;52.270;6.832;2022-10-23T07:34:09;8.90;;;5.50;;
47309;SDS011;33046;52.270;6.832;2022-10-23T07:36:17;7.32;;;5.70;;
47309;SDS011;33046;52.270;6.832;2022-10-23T07:38:25;6.10;;;5.05;;
47309;SDS011;33046;52.270;6.832;2022-10-23T07:40:33;8.90;;;5.82;;
47309;SDS011;33046;52.270;6.832;2022-10-23T07:42:41;9.25;;;5.75;;
47309;SDS011;33046;52.270;6.832;2022-10-23T07:44:48;6.57;;;5.45;;
47309;SDS011;33046;52.270;6.832;2022-10-23T07:46:55;8.32;;;5.43;;
47309;SDS011;33046;52.270;6.832;2022-10-23T07:49:02;8.63;;;5.78;;
47309;SDS011;33046;52.270;6.832;2022-10-23T07:51:11;7.72;;;4.65;;
47309;SDS011;33046;52.270;6.832;2022-10-23T07:53:24;5.97;;;4.90;;
47309;SDS011;33046;52.270;6.832;2022-10-23T07:55:33;5.93;;;4.65;;
47309;SDS011;33046;52.270;6.832;2022-10-23T07:57:48;7.78;;;4.63;;
47309;SDS011;33046;52.270;6.832;2022-10-23T08:00:11;8.80;;;5.03;;
47309;SDS011;33046;52.270;6.832;2022-10-23T08:02:31;8.60;;;5.18;;
47309;SDS011;33046;52.270;6.832;2022-10-23T08:04:38;9.65;;;4.75;;
47309;SDS011;33046;52.270;6.832;2022-10-23T08:07:09;9.20;;;4.75;;
47309;SDS011;33046;52.270;6.832;2022-10-23T08:09:20;9.48;;;4.38;;
47309;SDS011;33046;52.270;6.832;2022-10-23T08:11:27;8.88;;;4.75;;
47309;SDS011;33046;52.270;6.832;2022-10-23T08:13:36;6.80;;;5.13;;
47309;SDS011;33046;52.270;6.832;2022-10-23T08:15:45;7.63;;;3.95;;
47309;SDS011;33046;52.270;6.832;2022-10-23T08:18:12;8.50;;;5.22;;
47309;SDS011;33046;52.270;6.832;2022-10-23T08:20:23;7.45;;;4.15;;
47309;SDS011;33046;52.270;6.832;2022-10-23T08:22:31;5.57;;;5.05;;
47309;SDS011;33046;52.270;6.832;2022-10-23T08:24:38;7.88;;;5.13;;
47309;SDS011;33046;52.270;6.832;2022-10-23T08:26:45;7.70;;;4.43;;
47309;SDS011;33046;52.270;6.832;2022-10-23T08:28:53;25.90;;;5.65;;
47309;SDS011;33046;52.270;6.832;2022-10-23T08:31:05;7.90;;;4.32;;
47309;SDS011;33046;52.270;6.832;2022-10-23T08:33:12;6.85;;;4.15;;
47309;SDS011;33046;52.270;6.832;2022-10-23T08:35:19;9.10;;;4.35;;
47309;SDS011;33046;52.270;6.832;2022-10-23T08:37:26;7.70;;;4.32;;
47309;SDS011;33046;52.270;6.832;2022-10-23T08:39:34;8.63;;;4.20;;
47309;SDS011;33046;52.270;6.832;2022-10-23T08:41:56;5.10;;;4.28;;
47309;SDS011;33046;52.270;6.832;2022-10-23T08:44:06;11.30;;;5.93;;
47309;SDS011;33046;52.270;6.832;2022-10-23T08:46:22;5.35;;;3.85;;
47309;SDS011;33046;52.270;6.832;2022-10-23T08:48:52;4.93;;;4.45;;
47309;SDS011;33046;52.270;6.832;2022-10-23T08:51:20;8.20;;;5.05;;
47309;SDS011;33046;52.270;6.832;2022-10-23T08:53:34;5.80;;;4.18;;
47309;SDS011;33046;52.270;6.832;2022-10-23T08:55:48;6.60;;;3.72;;
47309;SDS011;33046;52.270;6.832;2022-10-23T08:58:02;6.72;;;3.92;;
47309;SDS011;33046;52.270;6.832;2022-10-23T09:00:12;10.90;;;3.92;;
47309;SDS011;33046;52.270;6.832;2022-10-23T09:02:22;9.27;;;4.10;;
47309;SDS011;33046;52.270;6.832;2022-10-23T09:04:32;6.57;;;3.72;;
47309;SDS011;33046;52.270;6.832;2022-10-23T09:06:40;8.10;;;4.05;;
47309;SDS011;33046;52.270;6.832;2022-10-23T09:08:55;9.80;;;4.40;;
47309;SDS011;33046;52.270;6.832;2022-10-23T09:11:13;8.10;;;4.93;;
47309;SDS011;33046;52.270;6.832;2022-10-23T09:13:38;8.27;;;4.25;;
47309;SDS011;33046;52.270;6.832;2022-10-23T09:15:57;9.55;;;4.45;;
47309;SDS011;33046;52.270;6.832;2022-10-23T09:18:10;6.00;;;4.95;;
47309;SDS011;33046;52.270;6.832;2022-10-23T09:20:19;5.47;;;3.75;;
47309;SDS011;33046;52.270;6.832;2022-10-23T09:22:28;8.27;;;4.03;;
47309;SDS011;33046;52.270;6.832;2022-10-23T09:24:35;5.93;;;3.97;;
47309;SDS011;33046;52.270;6.832;2022-10-23T09:26:43;5.93;;;3.72;;
47309;SDS011;33046;52.270;6.832;2022-10-23T09:28:51;7.55;;;3.50;;
47309;SDS011;33046;52.270;6.832;2022-10-23T09:31:04;5.07;;;2.97;;
47309;SDS011;33046;52.270;6.832;2022-10-23T09:33:12;3.53;;;2.92;;
47309;SDS011;33046;52.270;6.832;2022-10-23T09:35:20;5.72;;;3.20;;
47309;SDS011;33046;52.270;6.832;2022-10-23T09:37:28;6.45;;;4.32;;
47309;SDS011;33046;52.270;6.832;2022-10-23T09:39:37;4.28;;;2.95;;
47309;SDS011;33046;52.270;6.832;2022-10-23T09:41:45;5.72;;;3.33;;
47309;SDS011;33046;52.270;6.832;2022-10-23T09:43:59;4.15;;;3.63;;
47309;SDS011;33046;52.270;6.832;2022-10-23T09:46:06;6.07;;;2.92;;
47309;SDS011;33046;52.270;6.832;2022-10-23T09:48:15;5.53;;;2.88;;
47309;SDS011;33046;52.270;6.832;2022-10-23T09:50:24;10.35;;;3.55;;
47309;SDS011;33046;52.270;6.832;2022-10-23T09:52:31;9.35;;;2.92;;
47309;SDS011;33046;52.270;6.832;2022-10-23T09:54:43;6.20;;;2.08;;
47309;SDS011;33046;52.270;6.832;2022-10-23T09:56:53;5.78;;;2.95;;
47309;SDS011;33046;52.270;6.832;2022-10-23T09:59:01;5.35;;;2.63;;
47309;SDS011;33046;52.270;6.832;2022-10-23T10:01:20;5.43;;;2.60;;
47309;SDS011;33046;52.270;6.832;2022-10-23T10:03:30;6.85;;;3.25;;
47309;SDS011;33046;52.270;6.832;2022-10-23T10:05:41;8.98;;;2.45;;
47309;SDS011;33046;52.270;6.832;2022-10-23T10:07:55;4.18;;;2.50;;
47309;SDS011;33046;52.270;6.832;2022-10-23T10:10:06;7.43;;;3.25;;
47309;SDS011;33046;52.270;6.832;2022-10-23T10:12:25;7.10;;;3.00;;
47309;SDS011;33046;52.270;6.832;2022-10-23T10:14:46;4.00;;;2.33;;
47309;SDS011;33046;52.270;6.832;2022-10-23T10:17:05;4.65;;;2.65;;
47309;SDS011;33046;52.270;6.832;2022-10-23T10:19:24;7.70;;;2.33;;
47309;SDS011;33046;52.270;6.832;2022-10-23T10:21:38;6.45;;;2.22;;
47309;SDS011;33046;52.270;6.832;2022-10-23T10:23:52;6.80;;;3.05;;
47309;SDS011;33046;52.270;6.832;2022-10-23T10:26:07;5.63;;;2.90;;
47309;SDS011;33046;52.270;6.832;2022-10-23T10:28:30;6.35;;;2.20;;
47309;SDS011;33046;52.270;6.832;2022-10-23T10:30:54;6.57;;;2.22;;
47309;SDS011;33046;52.270;6.832;2022-10-23T10:33:08;5.05;;;2.10;;
47309;SDS011;33046;52.270;6.832;2022-10-23T10:35:24;4.70;;;2.30;;
47309;SDS011;33046;52.270;6.832;2022-10-23T10:37:36;7.35;;;2.05;;
47309;SDS011;33046;52.270;6.832;2022-10-23T10:39:54;7.50;;;2.65;;
47309;SDS011;33046;52.270;6.832;2022-10-23T10:42:15;4.88;;;2.58;;
47309;SDS011;33046;52.270;6.832;2022-10-23T10:44:58;3.08;;;1.90;;
47309;SDS011;33046;52.270;6.832;2022-10-23T10:47:14;5.45;;;2.15;;
47309;SDS011;33046;52.270;6.832;2022-10-23T10:49:29;5.43;;;3.33;;
47309;SDS011;33046;52.270;6.832;2022-10-23T10:52:02;7.13;;;1.95;;
47309;SDS011;33046;52.270;6.832;2022-10-23T10:54:32;6.50;;;2.13;;
47309;SDS011;33046;52.270;6.832;2022-10-23T10:56:46;5.10;;;2.13;;
47309;SDS011;33046;52.270;6.832;2022-10-23T10:58:53;5.03;;;1.92;;
47309;SDS011;33046;52.270;6.832;2022-10-23T11:01:05;5.57;;;2.33;;
47309;SDS011;33046;52.270;6.832;2022-10-23T11:03:21;5.10;;;2.10;;
47309;SDS011;33046;52.270;6.832;2022-10-23T11:05:36;3.00;;;2.22;;
47309;SDS011;33046;52.270;6.832;2022-10-23T11:07:51;5.60;;;1.95;;
47309;SDS011;33046;52.270;6.832;2022-10-23T11:10:02;4.45;;;2.40;;
47309;SDS011;33046;52.270;6.832;2022-10-23T11:12:19;5.30;;;2.22;;
47309;SDS011;33046;52.270;6.832;2022-10-23T11:14:29;6.60;;;2.33;;
47309;SDS011;33046;52.270;6.832;2022-10-23T11:16:39;6.72;;;2.17;;
47309;SDS011;33046;52.270;6.832;2022-10-23T11:18:52;4.78;;;1.88;;
47309;SDS011;33046;52.270;6.832;2022-10-23T11:21:10;10.85;;;3.00;;
47309;SDS011;33046;52.270;6.832;2022-10-23T11:23:32;4.50;;;1.98;;
47309;SDS011;33046;52.270;6.832;2022-10-23T11:25:56;7.25;;;2.88;;
47309;SDS011;33046;52.270;6.832;2022-10-23T11:28:16;6.68;;;2.50;;
47309;SDS011;33046;52.270;6.832;2022-10-23T11:30:34;3.90;;;1.95;;
47309;SDS011;33046;52.270;6.832;2022-10-23T11:33:09;8.02;;;2.70;;
47309;SDS011;33046;52.270;6.832;2022-10-23T11:35:46;7.38;;;2.25;;
47309;SDS011;33046;52.270;6.832;2022-10-23T11:37:59;5.90;;;2.30;;
47309;SDS011;33046;52.270;6.832;2022-10-23T11:42:29;6.53;;;2.20;;
47309;SDS011;33046;52.270;6.832;2022-10-23T11:44:39;7.40;;;2.60;;
47309;SDS011;33046;52.270;6.832;2022-10-23T11:46:47;7.50;;;2.20;;
47309;SDS011;33046;52.270;6.832;2022-10-23T11:49:18;4.75;;;2.10;;
47309;SDS011;33046;52.270;6.832;2022-10-23T11:51:26;6.82;;;1.40;;
47309;SDS011;33046;52.270;6.832;2022-10-23T11:53:38;2.92;;;1.63;;
47309;SDS011;33046;52.270;6.832;2022-10-23T11:55:58;6.90;;;1.92;;
47309;SDS011;33046;52.270;6.832;2022-10-23T11:58:14;2.45;;;1.58;;
47309;SDS011;33046;52.270;6.832;2022-10-23T12:00:30;3.03;;;1.63;;
47309;SDS011;33046;52.270;6.832;2022-10-23T12:02:39;5.93;;;1.80;;
47309;SDS011;33046;52.270;6.832;2022-10-23T12:04:49;4.38;;;1.80;;
47309;SDS011;33046;52.270;6.832;2022-10-23T12:06:58;4.97;;;1.52;;
47309;SDS011;33046;52.270;6.832;2022-10-23T12:09:17;8.90;;;1.75;;
47309;SDS011;33046;52.270;6.832;2022-10-23T12:11:39;5.00;;;1.50;;
47309;SDS011;33046;52.270;6.832;2022-10-23T12:13:47;4.53;;;2.10;;
47309;SDS011;33046;52.270;6.832;2022-10-23T12:15:54;8.20;;;1.95;;
47309;SDS011;33046;52.270;6.832;2022-10-23T12:18:12;4.13;;;1.60;;
47309;SDS011;33046;52.270;6.832;2022-10-23T12:20:24;5.07;;;1.98;;
47309;SDS011;33046;52.270;6.832;2022-10-23T12:22:36;4.32;;;2.33;;
47309;SDS011;33046;52.270;6.832;2022-10-23T12:24:51;4.85;;;1.40;;
47309;SDS011;33046;52.270;6.832;2022-10-23T12:29:37;3.22;;;1.70;;
47309;SDS011;33046;52.270;6.832;2022-10-23T12:31:56;2.95;;;2.05;;
47309;SDS011;33046;52.270;6.832;2022-10-23T12:34:16;3.33;;;1.60;;
47309;SDS011;33046;52.270;6.832;2022-10-23T12:36:38;4.45;;;1.90;;
47309;SDS011;33046;52.270;6.832;2022-10-23T12:38:55;4.88;;;1.70;;
47309;SDS011;33046;52.270;6.832;2022-10-23T12:41:18;4.35;;;1.73;;
47309;SDS011;33046;52.270;6.832;2022-10-23T12:43:29;7.95;;;1.30;;
47309;SDS011;33046;52.270;6.832;2022-10-23T12:45:38;4.82;;;1.73;;
47309;SDS011;33046;52.270;6.832;2022-10-23T12:47:48;4.13;;;1.70;;
47309;SDS011;33046;52.270;6.832;2022-10-23T12:49:56;4.45;;;1.80;;
47309;SDS011;33046;52.270;6.832;2022-10-23T12:52:05;4.22;;;1.40;;
47309;SDS011;33046;52.270;6.832;2022-10-23T12:54:20;3.75;;;1.70;;
47309;SDS011;33046;52.270;6.832;2022-10-23T12:56:33;5.60;;;1.98;;
47309;SDS011;33046;52.270;6.832;2022-10-23T12:58:44;2.88;;;2.28;;
47309;SDS011;33046;52.270;6.832;2022-10-23T13:00:55;5.68;;;2.03;;
47309;SDS011;33046;52.270;6.832;2022-10-23T13:03:03;4.45;;;1.63;;
47309;SDS011;33046;52.270;6.832;2022-10-23T13:05:18;4.07;;;2.67;;
47309;SDS011;33046;52.270;6.832;2022-10-23T13:07:27;4.22;;;1.63;;
47309;SDS011;33046;52.270;6.832;2022-10-23T13:09:39;5.00;;;1.30;;
47309;SDS011;33046;52.270;6.832;2022-10-23T13:11:58;4.63;;;1.50;;
47309;SDS011;33046;52.270;6.832;2022-10-23T13:14:10;6.30;;;1.70;;
47309;SDS011;33046;52.270;6.832;2022-10-23T13:16:18;10.13;;;1.45;;
47309;SDS011;33046;52.270;6.832;2022-10-23T13:18:26;5.57;;;1.30;;
47309;SDS011;33046;52.270;6.832;2022-10-23T13:20:33;3.72;;;1.23;;
47309;SDS011;33046;52.270;6.832;2022-10-23T13:22:42;2.40;;;1.00;;
47309;SDS011;33046;52.270;6.832;2022-10-23T13:24:50;8.73;;;1.77;;
47309;SDS011;33046;52.270;6.832;2022-10-23T13:26:57;4.00;;;1.20;;
47309;SDS011;33046;52.270;6.832;2022-10-23T13:29:04;3.88;;;1.08;;
47309;SDS011;33046;52.270;6.832;2022-10-23T13:31:26;9.05;;;1.40;;
47309;SDS011;33046;52.270;6.832;2022-10-23T13:33:36;4.65;;;1.05;;